Time;durP1;ratioP1;P1;durP2;ratioP2;P2;SDS_P1;SDS_P2;PMS_P1;PMS_P2;Temp;Humidity;BMP_temperature;BMP_pressure;BME280_temperature;BME280_humidity;BME280_pressure;Samples;Min_cycle;Max_cycle;Signal;HPM_P1;HPM_P2
2023/11/16 00:00:22;;;;;;;10.37;4.23;;;8.10;46.10;;;;;;5042969;28;20308;-59
2023/11/16 00:02:52;;;;;;;9.43;4.00;;;8.00;45.50;;;;;;5046017;28;20204;-58
2023/11/16 00:05:20;;;;;;;11.40;4.60;;;8.00;49.20;;;;;;5042729;28;20746;-58
2023/11/16 00:07:48;;;;;;;14.30;4.60;;;8.00;58.90;;;;;;5044791;28;20268;-59
2023/11/16 00:10:19;;;;;;;13.20;4.43;;;7.90;62.50;;;;;;5046282;28;20203;-58
2023/11/16 00:12:48;;;;;;;17.73;4.57;;;7.80;73.70;;;;;;5043552;28;20743;-58
2023/11/16 00:15:19;;;;;;;11.17;4.20;;;7.70;86.40;;;;;;5046800;28;20220;-58
2023/11/16 00:17:48;;;;;;;8.30;4.20;;;7.70;92.70;;;;;;5041442;28;20217;-58
2023/11/16 00:20:16;;;;;;;10.97;4.27;;;7.60;97.10;;;;;;5043969;28;20251;-58
2023/11/16 00:22:44;;;;;;;12.67;4.60;;;7.60;99.90;;;;;;5042167;28;20253;-58
2023/11/16 00:25:16;;;;;;;13.00;4.50;;;7.60;98.70;;;;;;5044609;28;20192;-58
2023/11/16 00:27:45;;;;;;;8.90;4.27;;;7.60;99.90;;;;;;5043686;28;20217;-58
2023/11/16 00:30:14;;;;;;;13.33;4.20;;;7.60;99.90;;;;;;5042802;28;20231;-58
2023/11/16 00:32:43;;;;;;;12.37;4.23;;;7.50;99.90;;;;;;5048096;28;20236;-59
2023/11/16 00:35:12;;;;;;;14.30;4.50;;;7.50;99.90;;;;;;5041083;28;20229;-58
2023/11/16 00:37:41;;;;;;;6.93;3.80;;;7.50;99.90;;;;;;5045024;28;20215;-56
2023/11/16 00:40:13;;;;;;;10.50;4.10;;;7.50;99.90;;;;;;5043915;28;20201;-59
2023/11/16 00:42:41;;;;;;;10.70;3.83;;;7.50;99.90;;;;;;5036889;28;20287;-59
2023/11/16 00:45:10;;;;;;;9.07;4.13;;;7.50;99.90;;;;;;5039064;28;20221;-59
2023/11/16 00:47:39;;;;;;;11.83;4.83;;;7.50;99.90;;;;;;5044432;28;20240;-59
2023/11/16 00:50:11;;;;;;;12.93;4.70;;;7.50;99.90;;;;;;5047335;28;20675;-59
2023/11/16 00:52:39;;;;;;;11.73;4.00;;;7.60;99.90;;;;;;5044629;28;20216;-59
2023/11/16 00:55:09;;;;;;;9.07;3.80;;;7.60;98.70;;;;;;5049785;28;20229;-58
2023/11/16 00:57:37;;;;;;;10.30;3.87;;;7.60;97.30;;;;;;5047785;28;20326;-59
2023/11/16 01:00:10;;;;;;;11.40;3.53;;;7.60;96.20;;;;;;5048857;28;20239;-58
2023/11/16 01:02:39;;;;;;;12.47;3.17;;;7.50;98.30;;;;;;5045669;28;20290;-58
2023/11/16 01:05:10;;;;;;;8.77;3.53;;;7.50;97.90;;;;;;5043517;28;20239;-59
2023/11/16 01:07:39;;;;;;;8.77;3.57;;;7.50;98.00;;;;;;5051368;28;20217;-59
2023/11/16 01:10:13;;;;;;;10.83;3.73;;;7.40;99.90;;;;;;5046817;28;20279;-59
2023/11/16 01:12:43;;;;;;;13.50;3.47;;;7.40;99.90;;;;;;5050440;28;20270;-59
2023/11/16 01:15:14;;;;;;;11.87;4.27;;;7.40;99.90;;;;;;5041717;28;20255;-59
2023/11/16 01:17:45;;;;;;;10.77;3.13;;;7.30;99.90;;;;;;5041988;28;20228;-59
2023/11/16 01:20:19;;;;;;;10.33;3.43;;;7.30;99.90;;;;;;5044332;28;20359;-58
2023/11/16 01:23:00;;;;;;;12.07;3.40;;;7.30;99.90;;;;;;5047148;28;20220;-58
2023/11/16 01:25:32;;;;;;;6.10;3.37;;;7.30;99.90;;;;;;5042599;28;20196;-59
2023/11/16 01:28:00;;;;;;;10.17;3.60;;;7.30;99.90;;;;;;5047640;28;20243;-59
2023/11/16 01:30:29;;;;;;;6.10;3.20;;;7.30;99.90;;;;;;5048612;28;20717;-58
2023/11/16 01:32:58;;;;;;;11.83;3.90;;;7.20;99.90;;;;;;5049616;28;20291;-58
2023/11/16 01:35:28;;;;;;;11.07;3.27;;;7.20;99.90;;;;;;5046154;28;20248;-58
2023/11/16 01:37:57;;;;;;;9.03;3.70;;;7.20;99.90;;;;;;5045431;28;20205;-58
2023/11/16 01:40:27;;;;;;;9.87;3.70;;;7.20;99.90;;;;;;5051821;28;20271;-59
2023/11/16 01:42:57;;;;;;;8.07;3.77;;;7.20;99.90;;;;;;5050020;28;20208;-58
2023/11/16 01:45:30;;;;;;;9.27;3.67;;;7.20;99.90;;;;;;5047146;28;20233;-58
2023/11/16 01:48:01;;;;;;;13.67;3.63;;;7.10;99.90;;;;;;5047965;28;20233;-58
2023/11/16 01:50:35;;;;;;;9.50;3.77;;;7.10;99.90;;;;;;5050935;28;20298;-58
2023/11/16 01:53:09;;;;;;;10.27;3.50;;;7.10;99.90;;;;;;5044033;28;20283;-59
2023/11/16 01:55:40;;;;;;;9.00;3.40;;;7.00;99.90;;;;;;5044642;28;20687;-58
2023/11/16 01:58:10;;;;;;;18.30;3.70;;;7.00;99.90;;;;;;5046738;28;20299;-58
2023/11/16 02:00:42;;;;;;;9.70;3.70;;;7.00;99.90;;;;;;5046016;28;20294;-59
2023/11/16 02:03:11;;;;;;;8.87;3.60;;;7.00;99.90;;;;;;5048146;28;20225;-58
2023/11/16 02:05:41;;;;;;;7.37;3.57;;;7.00;99.90;;;;;;5040216;28;20248;-58
2023/11/16 02:08:10;;;;;;;10.57;4.20;;;7.00;99.90;;;;;;5045897;28;20229;-58
2023/11/16 02:10:41;;;;;;;12.57;4.57;;;7.00;99.90;;;;;;5045155;28;20197;-58
2023/11/16 02:13:17;;;;;;;13.10;3.83;;;7.00;99.90;;;;;;5048377;28;20219;-58
2023/11/16 02:15:46;;;;;;;11.10;3.80;;;6.90;99.90;;;;;;5046254;28;20640;-58
2023/11/16 02:18:15;;;;;;;10.83;4.13;;;6.90;99.90;;;;;;5044099;28;20237;-59
2023/11/16 02:20:46;;;;;;;16.37;4.10;;;6.90;99.90;;;;;;5049448;28;20209;-58
2023/11/16 02:23:17;;;;;;;14.07;4.60;;;6.90;99.90;;;;;;5045609;28;20251;-59
2023/11/16 02:25:47;;;;;;;16.43;4.40;;;6.90;99.90;;;;;;5046004;28;20238;-58
2023/11/16 02:28:16;;;;;;;16.87;4.93;;;6.80;99.90;;;;;;5047449;28;20296;-59
2023/11/16 02:30:45;;;;;;;7.13;3.87;;;6.80;99.90;;;;;;5045154;28;20221;-59
2023/11/16 02:33:13;;;;;;;10.43;4.57;;;6.80;99.90;;;;;;5048428;28;20240;-59
2023/11/16 02:35:42;;;;;;;14.30;4.57;;;6.80;99.90;;;;;;5039006;28;20221;-59
2023/11/16 02:38:12;;;;;;;9.90;5.27;;;6.70;99.90;;;;;;5023729;28;20248;-59
2023/11/16 02:40:42;;;;;;;21.60;5.40;;;6.70;99.90;;;;;;5028868;28;20199;-59
2023/11/16 02:43:10;;;;;;;10.63;4.80;;;6.70;99.90;;;;;;5028141;28;20193;-58
2023/11/16 02:45:39;;;;;;;15.83;4.87;;;6.70;99.90;;;;;;5026196;28;20222;-59
2023/11/16 02:48:08;;;;;;;13.10;4.73;;;6.60;99.90;;;;;;5025243;28;20721;-59
2023/11/16 02:50:36;;;;;;;11.83;4.27;;;6.60;99.90;;;;;;5029582;28;20221;-59
2023/11/16 02:53:05;;;;;;;8.30;4.17;;;6.60;99.90;;;;;;5027567;28;20221;-58
2023/11/16 02:55:34;;;;;;;12.33;4.53;;;6.50;99.90;;;;;;5025488;28;20209;-58
2023/11/16 02:58:04;;;;;;;13.60;4.70;;;6.50;99.90;;;;;;5026776;28;20356;-59
2023/11/16 03:00:32;;;;;;;15.03;4.53;;;6.50;99.90;;;;;;5028751;28;20233;-58
2023/11/16 03:03:02;;;;;;;12.80;4.90;;;6.50;99.90;;;;;;5036730;28;20212;-58
2023/11/16 03:05:32;;;;;;;18.63;5.00;;;6.50;99.90;;;;;;5037455;28;20278;-59
2023/11/16 03:08:02;;;;;;;14.57;5.57;;;6.50;99.90;;;;;;5048879;28;20225;-59
2023/11/16 03:10:30;;;;;;;9.47;5.03;;;6.50;99.90;;;;;;5043690;28;20632;-59
2023/11/16 03:12:58;;;;;;;14.60;4.97;;;6.40;99.90;;;;;;5040185;28;20214;-58
2023/11/16 03:15:28;;;;;;;12.83;4.90;;;6.40;99.90;;;;;;5044614;28;20228;-58
2023/11/16 03:17:56;;;;;;;12.87;4.80;;;6.40;99.90;;;;;;5045492;28;20244;-59
2023/11/16 03:20:25;;;;;;;14.90;5.20;;;6.40;99.90;;;;;;5046253;28;20303;-58
2023/11/16 03:22:53;;;;;;;7.40;4.30;;;6.50;99.90;;;;;;5044355;28;20240;-58
2023/11/16 03:25:22;;;;;;;10.00;4.40;;;6.50;99.90;;;;;;5048832;28;20185;-59
2023/11/16 03:27:49;;;;;;;11.47;4.50;;;6.40;99.90;;;;;;5045972;28;20317;-59
2023/11/16 03:30:17;;;;;;;14.17;4.73;;;6.40;99.90;;;;;;5049095;28;20216;-59
2023/11/16 03:32:47;;;;;;;17.93;4.87;;;6.40;99.90;;;;;;5044350;28;20217;-58
2023/11/16 03:35:16;;;;;;;14.27;5.10;;;6.40;99.90;;;;;;5046511;28;20228;-58
2023/11/16 03:37:44;;;;;;;19.30;4.57;;;6.40;99.90;;;;;;5042540;28;20265;-58
2023/11/16 03:40:13;;;;;;;12.93;5.00;;;6.40;99.90;;;;;;5045358;28;20272;-59
2023/11/16 03:42:42;;;;;;;12.33;4.60;;;6.50;99.90;;;;;;5046713;28;20220;-59
2023/11/16 03:45:12;;;;;;;20.10;5.23;;;6.40;99.90;;;;;;5040972;28;20247;-58
2023/11/16 03:47:41;;;;;;;13.83;4.77;;;6.50;99.90;;;;;;5045213;28;20228;-59
2023/11/16 03:50:11;;;;;;;10.47;4.27;;;6.50;99.90;;;;;;5045021;28;20220;-58
2023/11/16 03:52:39;;;;;;;12.67;5.00;;;6.50;99.90;;;;;;5045200;28;20193;-58
2023/11/16 03:55:08;;;;;;;13.30;4.80;;;6.50;99.90;;;;;;5048595;28;20217;-58
2023/11/16 03:57:36;;;;;;;22.20;5.60;;;6.50;99.90;;;;;;5046631;28;20228;-58
2023/11/16 04:00:07;;;;;;;11.93;4.47;;;6.50;99.90;;;;;;5042385;28;20217;-58
2023/11/16 04:02:36;;;;;;;19.90;5.07;;;6.50;99.90;;;;;;5044820;28;20216;-59
2023/11/16 04:05:06;;;;;;;24.33;5.30;;;6.50;99.90;;;;;;5046545;28;20220;-59
2023/11/16 04:07:35;;;;;;;12.33;4.70;;;6.50;99.90;;;;;;5048373;28;20197;-59
2023/11/16 04:10:09;;;;;;;13.57;4.73;;;6.50;99.90;;;;;;5050449;28;20698;-59
2023/11/16 04:12:40;;;;;;;19.87;5.00;;;6.50;99.90;;;;;;5038335;28;20220;-58
2023/11/16 04:15:13;;;;;;;15.40;4.97;;;6.50;99.90;;;;;;5043627;28;20213;-59
2023/11/16 04:17:43;;;;;;;17.70;4.97;;;6.50;99.90;;;;;;5041859;28;20220;-58
2023/11/16 04:20:12;;;;;;;15.53;5.20;;;6.50;99.90;;;;;;5042586;28;20754;-59
2023/11/16 04:22:43;;;;;;;19.97;5.20;;;6.50;99.90;;;;;;5044510;28;20315;-58
2023/11/16 04:25:18;;;;;;;18.23;5.40;;;6.40;99.90;;;;;;5042055;28;20189;-59
2023/11/16 04:27:49;;;;;;;10.03;5.00;;;6.40;99.90;;;;;;5042211;28;20220;-58
2023/11/16 04:30:19;;;;;;;18.67;5.37;;;6.40;99.90;;;;;;5043336;28;20220;-59
2023/11/16 04:32:50;;;;;;;13.90;5.10;;;6.40;99.90;;;;;;5039421;28;20217;-59
2023/11/16 04:35:20;;;;;;;14.53;5.70;;;6.40;99.90;;;;;;5044918;28;20221;-58
2023/11/16 04:37:53;;;;;;;19.37;5.40;;;6.30;99.90;;;;;;5046462;28;20682;-59
2023/11/16 04:40:22;;;;;;;12.47;5.33;;;6.20;99.90;;;;;;5045457;28;20690;-59
2023/11/16 04:42:51;;;;;;;13.77;5.07;;;6.20;99.90;;;;;;5043153;28;20588;-58
2023/11/16 04:45:19;;;;;;;19.03;4.63;;;6.10;99.90;;;;;;5044519;28;20220;-59
2023/11/16 04:47:48;;;;;;;11.93;4.70;;;6.00;99.90;;;;;;5045407;28;20288;-59
2023/11/16 04:50:18;;;;;;;14.87;4.73;;;5.90;99.90;;;;;;5041210;28;20621;-58
2023/11/16 04:52:47;;;;;;;17.00;4.93;;;5.90;99.90;;;;;;5041152;28;20662;-59
2023/11/16 04:55:18;;;;;;;16.93;5.60;;;5.90;99.90;;;;;;5040383;28;20205;-59
2023/11/16 04:57:47;;;;;;;19.13;5.60;;;5.90;99.90;;;;;;5041111;28;20220;-59
2023/11/16 05:00:18;;;;;;;12.40;5.40;;;5.90;99.90;;;;;;5044763;28;20232;-59
2023/11/16 05:02:47;;;;;;;15.93;5.20;;;5.90;99.90;;;;;;5046506;28;20220;-58
2023/11/16 05:05:16;;;;;;;19.70;5.37;;;5.80;99.90;;;;;;5042929;28;20298;-58
2023/11/16 05:07:45;;;;;;;11.13;5.93;;;5.80;99.90;;;;;;5043237;28;20193;-58
2023/11/16 05:10:15;;;;;;;13.00;4.93;;;5.90;99.90;;;;;;5040283;28;20200;-58
2023/11/16 05:12:48;;;;;;;21.57;5.30;;;5.90;99.90;;;;;;5045671;28;20662;-58
2023/11/16 05:15:17;;;;;;;16.07;5.50;;;5.90;99.90;;;;;;5045156;28;20226;-58
2023/11/16 05:17:45;;;;;;;18.33;6.33;;;5.90;99.90;;;;;;5044714;28;20320;-58
2023/11/16 05:20:16;;;;;;;24.90;6.30;;;6.00;99.90;;;;;;5038424;28;20228;-58
2023/11/16 05:22:45;;;;;;;15.40;6.27;;;6.00;99.90;;;;;;5047665;28;20691;-58
2023/11/16 05:25:13;;;;;;;13.50;5.87;;;6.00;99.90;;;;;;5038901;28;20559;-58
2023/11/16 05:27:41;;;;;;;21.43;6.23;;;6.00;99.90;;;;;;5041742;28;20213;-58
2023/11/16 05:30:12;;;;;;;14.77;6.17;;;6.00;99.90;;;;;;5044386;28;20291;-58
2023/11/16 05:32:40;;;;;;;17.53;5.43;;;6.00;99.90;;;;;;5037176;28;20224;-58
2023/11/16 05:35:11;;;;;;;16.93;5.67;;;5.90;99.90;;;;;;5047382;28;20764;-58
2023/11/16 05:37:39;;;;;;;16.03;5.50;;;5.90;99.90;;;;;;5048715;28;20213;-58
2023/11/16 05:40:09;;;;;;;14.37;5.77;;;5.80;99.90;;;;;;5045975;28;20213;-59
2023/11/16 05:42:37;;;;;;;16.63;5.47;;;5.80;99.90;;;;;;5045383;28;20316;-58
2023/11/16 05:45:07;;;;;;;11.57;5.73;;;5.70;99.90;;;;;;5043382;28;20256;-59
2023/11/16 05:47:36;;;;;;;17.80;5.47;;;5.70;99.90;;;;;;5047153;28;20315;-58
2023/11/16 05:50:05;;;;;;;15.77;5.47;;;5.70;99.90;;;;;;5047204;28;20275;-59
2023/11/16 05:52:34;;;;;;;11.43;5.53;;;5.70;99.90;;;;;;5051515;28;20193;-59
2023/11/16 05:55:01;;;;;;;20.33;6.23;;;5.60;99.90;;;;;;5049867;28;20243;-58
2023/11/16 05:57:29;;;;;;;17.77;5.87;;;5.60;99.90;;;;;;5049287;28;20237;-60
2023/11/16 05:59:59;;;;;;;25.97;6.33;;;5.60;99.90;;;;;;5051276;28;20216;-59
2023/11/16 06:02:28;;;;;;;15.33;5.47;;;5.50;99.90;;;;;;5048833;28;20590;-59
2023/11/16 06:04:57;;;;;;;15.63;5.07;;;5.50;99.90;;;;;;5043788;28;20201;-58
2023/11/16 06:07:26;;;;;;;14.67;5.77;;;5.50;99.90;;;;;;5046864;28;20185;-58
2023/11/16 06:09:54;;;;;;;18.00;5.33;;;5.50;99.90;;;;;;5039443;28;20216;-58
2023/11/16 06:12:23;;;;;;;17.00;5.57;;;5.40;99.90;;;;;;5046142;28;20770;-59
2023/11/16 06:14:55;;;;;;;15.90;5.87;;;5.40;99.90;;;;;;5045375;28;20738;-59
2023/11/16 06:17:23;;;;;;;17.33;6.30;;;5.30;99.90;;;;;;5045658;28;20224;-59
2023/11/16 06:19:54;;;;;;;14.00;5.87;;;5.30;99.90;;;;;;5044551;28;20250;-58
2023/11/16 06:22:24;;;;;;;20.33;6.67;;;5.30;99.90;;;;;;5048130;28;20621;-59
2023/11/16 06:24:52;;;;;;;20.73;6.93;;;5.40;99.90;;;;;;5040719;28;20231;-58
2023/11/16 06:27:21;;;;;;;24.20;6.00;;;5.40;99.90;;;;;;5047480;28;20291;-59
2023/11/16 06:29:49;;;;;;;26.33;6.60;;;5.40;99.90;;;;;;5048499;28;20296;-59
2023/11/16 06:32:17;;;;;;;25.33;7.13;;;5.40;99.90;;;;;;5045963;28;20230;-59
2023/11/16 06:34:46;;;;;;;18.47;6.50;;;5.40;99.90;;;;;;5040981;28;20185;-59
2023/11/16 06:37:14;;;;;;;29.03;8.03;;;5.40;99.90;;;;;;5046463;28;20205;-59
2023/11/16 06:39:43;;;;;;;21.80;8.97;;;5.40;99.90;;;;;;5047272;28;20221;-59
2023/11/16 06:42:12;;;;;;;23.37;10.37;;;5.40;99.90;;;;;;5043030;28;20217;-58
2023/11/16 06:44:40;;;;;;;38.87;9.60;;;5.30;99.90;;;;;;5046651;28;20282;-58
2023/11/16 06:47:08;;;;;;;30.13;9.07;;;5.30;99.90;;;;;;5045877;28;20240;-58
2023/11/16 06:49:37;;;;;;;31.10;9.47;;;5.30;99.90;;;;;;5046782;28;20239;-58
2023/11/16 06:52:06;;;;;;;27.93;8.93;;;5.30;99.90;;;;;;5043071;28;20225;-58
2023/11/16 06:54:34;;;;;;;29.43;8.60;;;5.30;99.90;;;;;;5048670;28;20220;-58
2023/11/16 06:57:06;;;;;;;26.67;8.47;;;5.20;99.90;;;;;;5041204;28;20221;-58
2023/11/16 06:59:35;;;;;;;25.90;8.37;;;5.30;99.90;;;;;;5049852;28;20221;-58
2023/11/16 07:02:04;;;;;;;25.47;8.30;;;5.40;99.90;;;;;;5042999;28;20245;-58
2023/11/16 07:04:33;;;;;;;22.77;8.27;;;5.40;99.90;;;;;;5045155;28;20198;-58
2023/11/16 07:07:01;;;;;;;22.73;8.63;;;5.40;99.90;;;;;;5044370;28;20212;-58
2023/11/16 07:09:29;;;;;;;25.83;8.27;;;5.40;99.90;;;;;;5040831;28;20228;-58
2023/11/16 07:11:59;;;;;;;25.37;8.80;;;5.40;99.90;;;;;;5048816;28;20650;-59
2023/11/16 07:14:29;;;;;;;33.53;8.90;;;5.40;99.90;;;;;;5046415;28;20233;-58
2023/11/16 07:17:14;;;;;;;23.70;9.07;;;5.50;99.90;;;;;;5043004;28;20229;-58
2023/11/16 07:19:44;;;;;;;35.00;9.17;;;5.50;99.90;;;;;;5044217;28;20189;-58
2023/11/16 07:22:12;;;;;;;30.90;9.03;;;5.50;99.90;;;;;;5040868;28;20608;-58
2023/11/16 07:24:43;;;;;;;33.03;9.43;;;5.50;99.90;;;;;;5043732;28;20224;-58
2023/11/16 07:27:13;;;;;;;27.43;10.13;;;5.60;99.90;;;;;;5047535;28;20339;-58
2023/11/16 07:29:43;;;;;;;31.90;10.23;;;5.60;99.90;;;;;;5045902;28;20243;-58
2023/11/16 07:32:13;;;;;;;22.03;8.27;;;5.60;99.90;;;;;;5044060;28;20221;-58
2023/11/16 07:34:42;;;;;;;33.80;9.17;;;5.60;99.90;;;;;;5045685;28;20199;-58
2023/11/16 07:37:11;;;;;;;25.23;9.10;;;5.60;99.90;;;;;;5046032;28;20235;-58
2023/11/16 07:39:40;;;;;;;23.47;9.30;;;5.60;99.90;;;;;;5036191;28;20224;-59
2023/11/16 07:42:09;;;;;;;26.83;9.63;;;5.60;99.90;;;;;;5042920;28;20291;-59
2023/11/16 07:44:39;;;;;;;22.53;8.27;;;5.60;99.90;;;;;;5041198;28;20303;-58
2023/11/16 07:47:09;;;;;;;23.73;9.07;;;5.60;99.90;;;;;;5040443;28;20225;-58
2023/11/16 07:49:38;;;;;;;16.67;7.33;;;5.60;99.90;;;;;;5049296;28;20279;-58
2023/11/16 07:52:07;;;;;;;17.23;7.27;;;5.60;99.90;;;;;;5044885;28;20232;-58
2023/11/16 07:54:44;;;;;;;24.60;8.97;;;5.60;99.90;;;;;;5044886;28;20312;-58
2023/11/16 07:57:13;;;;;;;31.57;8.90;;;5.60;99.90;;;;;;5043641;28;20678;-58
2023/11/16 07:59:42;;;;;;;23.53;8.10;;;5.60;99.90;;;;;;5044951;28;20563;-58
2023/11/16 08:02:16;;;;;;;23.60;8.60;;;5.60;99.90;;;;;;5045004;28;20231;-58
2023/11/16 08:04:45;;;;;;;25.20;8.40;;;5.70;99.90;;;;;;5042736;28;20185;-58
2023/11/16 08:07:14;;;;;;;25.07;8.40;;;5.70;99.90;;;;;;5046039;28;20201;-58
2023/11/16 08:09:44;;;;;;;22.73;8.00;;;5.70;99.90;;;;;;5045798;28;20297;-59
2023/11/16 08:12:15;;;;;;;20.93;7.67;;;5.70;99.90;;;;;;5040732;28;20221;-59
2023/11/16 08:14:44;;;;;;;20.50;8.57;;;5.80;99.90;;;;;;5047343;28;20254;-58
2023/11/16 08:17:16;;;;;;;28.40;8.30;;;5.80;99.90;;;;;;5045242;28;20225;-59
2023/11/16 08:19:45;;;;;;;26.07;7.83;;;5.80;99.90;;;;;;5047217;28;20193;-58
2023/11/16 08:22:14;;;;;;;26.83;8.63;;;5.90;99.90;;;;;;5040556;28;20235;-58
2023/11/16 08:24:42;;;;;;;21.20;8.17;;;5.90;99.90;;;;;;5042905;28;20224;-58
2023/11/16 08:27:11;;;;;;;19.40;7.90;;;5.90;99.90;;;;;;5041458;28;20225;-59
2023/11/16 08:29:39;;;;;;;18.60;6.90;;;6.00;99.90;;;;;;5042640;28;20251;-58
2023/11/16 08:32:08;;;;;;;26.97;7.90;;;6.00;99.90;;;;;;5039005;28;20256;-58
2023/11/16 08:34:38;;;;;;;19.97;7.67;;;6.00;99.90;;;;;;5048064;28;20197;-58
2023/11/16 08:37:08;;;;;;;17.40;7.70;;;6.10;99.90;;;;;;5043899;28;20587;-58
2023/11/16 08:39:36;;;;;;;35.43;9.33;;;6.20;99.90;;;;;;5040005;28;20695;-58
2023/11/16 08:42:06;;;;;;;28.03;7.90;;;6.20;99.90;;;;;;5046247;28;20303;-58
2023/11/16 08:44:35;;;;;;;29.77;8.00;;;6.30;99.90;;;;;;5045635;28;20216;-58
2023/11/16 08:47:07;;;;;;;24.57;7.33;;;6.30;99.90;;;;;;5045944;28;20216;-58
2023/11/16 08:49:37;;;;;;;24.20;8.10;;;6.40;99.90;;;;;;5044351;28;20696;-58
2023/11/16 08:52:07;;;;;;;25.27;9.33;;;6.40;99.90;;;;;;5044263;28;20743;-58
2023/11/16 08:54:38;;;;;;;30.13;10.60;;;6.40;99.90;;;;;;5041160;28;20579;-58
2023/11/16 08:57:06;;;;;;;30.67;10.73;;;6.50;99.90;;;;;;5046172;28;20220;-58
2023/11/16 08:59:35;;;;;;;24.43;9.63;;;6.50;99.90;;;;;;5044931;28;20235;-58
2023/11/16 09:02:04;;;;;;;27.93;8.90;;;6.50;99.90;;;;;;5040078;28;20220;-59
2023/11/16 09:04:33;;;;;;;23.93;8.30;;;6.50;99.90;;;;;;5041408;28;20189;-58
2023/11/16 09:07:01;;;;;;;29.13;8.67;;;6.60;99.90;;;;;;5037335;28;20221;-59
2023/11/16 09:09:37;;;;;;;33.30;9.17;;;6.70;99.90;;;;;;5048149;28;20233;-59
2023/11/16 09:12:12;;;;;;;17.80;7.87;;;6.70;99.90;;;;;;5053564;28;20258;-58
2023/11/16 09:14:42;;;;;;;21.93;8.07;;;6.70;99.90;;;;;;5045382;28;20730;-59
2023/11/16 09:17:17;;;;;;;24.93;7.50;;;6.80;99.90;;;;;;5047081;28;20695;-60
2023/11/16 09:19:46;;;;;;;27.30;8.53;;;6.80;99.90;;;;;;5048913;28;20208;-57
2023/11/16 09:22:14;;;;;;;33.87;7.70;;;6.80;99.90;;;;;;5040711;28;20243;-59
2023/11/16 09:24:44;;;;;;;25.90;8.03;;;6.90;99.90;;;;;;5044061;28;20213;-59
2023/11/16 09:27:15;;;;;;;17.70;7.23;;;6.90;99.90;;;;;;5051745;28;20217;-59
2023/11/16 09:29:45;;;;;;;22.07;7.30;;;7.00;99.90;;;;;;5044465;28;20217;-59
2023/11/16 09:32:16;;;;;;;25.07;7.80;;;7.00;99.90;;;;;;5046525;28;20224;-59
2023/11/16 09:34:44;;;;;;;22.00;7.53;;;7.10;99.90;;;;;;5041454;28;20200;-59
2023/11/16 09:37:14;;;;;;;23.17;7.87;;;7.20;99.90;;;;;;5046015;28;20197;-59
2023/11/16 09:39:44;;;;;;;23.33;7.53;;;7.20;99.90;;;;;;5045100;28;20225;-59
2023/11/16 09:42:16;;;;;;;24.27;7.10;;;7.20;99.90;;;;;;5049882;28;20278;-58
2023/11/16 09:44:52;;;;;;;18.73;7.63;;;7.30;99.90;;;;;;5050284;28;20572;-58
2023/11/16 09:47:29;;;;;;;22.07;8.27;;;7.30;99.90;;;;;;5049273;28;20235;-59
2023/11/16 09:49:58;;;;;;;18.60;6.90;;;7.30;99.90;;;;;;5048320;28;20189;-59
2023/11/16 09:52:32;;;;;;;17.70;6.90;;;7.40;99.90;;;;;;5046752;28;20280;-59
2023/11/16 09:55:03;;;;;;;15.90;7.07;;;7.40;99.90;;;;;;5042336;28;20667;-59
2023/11/16 09:57:33;;;;;;;27.03;8.53;;;7.50;99.90;;;;;;5045230;28;20311;-59
2023/11/16 10:00:14;;;;;;;24.10;7.97;;;7.50;99.90;;;;;;5047832;28;20595;-59
2023/11/16 10:02:45;;;;;;;20.70;8.07;;;7.60;99.90;;;;;;5040878;28;20567;-59
2023/11/16 10:05:24;;;;;;;26.73;8.10;;;7.60;99.90;;;;;;5047765;28;20288;-58
2023/11/16 10:07:53;;;;;;;26.50;9.20;;;7.60;99.90;;;;;;5046293;28;20275;-59
2023/11/16 10:10:25;;;;;;;17.70;8.10;;;7.50;99.90;;;;;;5039698;28;20566;-59
2023/11/16 10:12:53;;;;;;;23.33;8.00;;;7.50;99.90;;;;;;5042242;28;20212;-59
2023/11/16 10:15:22;;;;;;;18.40;8.23;;;7.50;99.90;;;;;;5042349;28;20224;-58
2023/11/16 10:17:51;;;;;;;24.30;8.23;;;7.50;99.90;;;;;;5046723;28;20227;-58
2023/11/16 10:20:20;;;;;;;26.33;8.33;;;7.50;99.90;;;;;;5048387;28;20252;-59
2023/11/16 10:22:49;;;;;;;24.10;8.73;;;7.50;99.90;;;;;;5044552;28;20228;-59
2023/11/16 10:25:17;;;;;;;26.63;9.23;;;7.50;99.90;;;;;;5047001;28;20188;-59
2023/11/16 10:27:49;;;;;;;28.80;8.87;;;7.50;99.90;;;;;;5047275;28;20571;-59
2023/11/16 10:30:18;;;;;;;22.13;7.83;;;7.50;99.90;;;;;;5045713;28;20224;-58
2023/11/16 10:32:49;;;;;;;25.47;8.50;;;7.50;99.90;;;;;;5043777;28;20229;-58
2023/11/16 10:35:18;;;;;;;26.97;7.67;;;7.50;99.90;;;;;;5049072;28;20695;-59
2023/11/16 10:37:47;;;;;;;22.77;8.97;;;7.50;99.90;;;;;;5048832;28;20601;-59
2023/11/16 10:40:15;;;;;;;20.33;7.83;;;7.60;99.90;;;;;;5043169;28;20497;-59
2023/11/16 10:42:44;;;;;;;18.10;8.83;;;7.60;99.90;;;;;;5049106;28;20209;-59
2023/11/16 10:45:15;;;;;;;19.10;8.43;;;7.60;99.90;;;;;;5045020;28;20244;-59
2023/11/16 10:47:44;;;;;;;18.13;8.37;;;7.70;99.90;;;;;;5044214;28;20675;-59
2023/11/16 10:50:15;;;;;;;22.70;8.63;;;7.70;99.90;;;;;;5049705;28;21431;-59
2023/11/16 10:52:45;;;;;;;25.10;8.37;;;7.70;99.90;;;;;;5048998;28;20258;-58
2023/11/16 10:55:17;;;;;;;24.37;9.13;;;7.80;99.90;;;;;;5044587;28;20200;-59
2023/11/16 10:57:50;;;;;;;25.47;9.10;;;7.80;99.90;;;;;;5046748;28;20683;-59
2023/11/16 11:00:22;;;;;;;35.90;10.50;;;7.80;99.90;;;;;;5045403;28;20580;-59
2023/11/16 11:02:51;;;;;;;24.53;8.47;;;7.90;99.90;;;;;;5046327;28;20256;-59
2023/11/16 11:05:21;;;;;;;19.90;8.13;;;7.90;99.90;;;;;;5047329;28;20232;-58
2023/11/16 11:07:54;;;;;;;19.83;8.57;;;7.90;99.90;;;;;;5048678;28;20689;-57
2023/11/16 11:10:23;;;;;;;24.50;8.80;;;8.00;99.90;;;;;;5044979;28;20185;-57
2023/11/16 11:12:55;;;;;;;25.00;9.10;;;8.00;99.90;;;;;;5049986;28;20340;-58
2023/11/16 11:15:31;;;;;;;21.90;9.10;;;8.10;99.90;;;;;;5047194;28;20229;-57
2023/11/16 11:18:00;;;;;;;23.67;9.03;;;8.00;99.90;;;;;;5051325;28;20216;-58
2023/11/16 11:20:37;;;;;;;20.50;8.90;;;8.00;99.90;;;;;;5046565;28;20225;-58
2023/11/16 11:23:07;;;;;;;20.53;8.63;;;8.10;99.90;;;;;;5042785;28;20303;-58
2023/11/16 11:25:37;;;;;;;22.20;9.40;;;8.00;99.90;;;;;;5047763;28;20184;-58
2023/11/16 11:28:08;;;;;;;24.90;9.13;;;8.10;99.90;;;;;;5054636;28;20225;-58
2023/11/16 11:30:49;;;;;;;24.50;9.80;;;8.10;99.90;;;;;;5045052;28;20626;-59
2023/11/16 11:33:27;;;;;;;28.57;9.67;;;8.10;99.90;;;;;;5046085;28;20240;-58
2023/11/16 11:35:56;;;;;;;19.90;9.33;;;8.10;99.90;;;;;;5038549;28;20700;-58
2023/11/16 11:38:27;;;;;;;29.20;9.57;;;8.10;99.90;;;;;;5046155;28;20233;-58
2023/11/16 11:41:06;;;;;;;26.37;9.17;;;8.10;99.90;;;;;;5045601;28;20204;-58
2023/11/16 11:43:38;;;;;;;23.90;9.70;;;8.10;99.90;;;;;;5042405;28;20266;-58
2023/11/16 11:46:09;;;;;;;18.03;8.83;;;8.10;99.90;;;;;;5042027;28;20363;-58
2023/11/16 11:48:38;;;;;;;26.33;10.10;;;8.20;99.90;;;;;;5047391;28;20568;-57
2023/11/16 11:51:09;;;;;;;21.37;10.57;;;8.20;99.90;;;;;;5043417;28;20594;-58
2023/11/16 11:53:37;;;;;;;19.00;9.83;;;8.20;99.90;;;;;;5041436;28;20221;-58
2023/11/16 11:56:08;;;;;;;19.17;10.17;;;8.20;99.90;;;;;;5047252;28;20259;-59
2023/11/16 11:58:37;;;;;;;17.20;9.47;;;8.30;99.90;;;;;;5045505;28;20201;-58
2023/11/16 12:01:09;;;;;;;21.27;10.13;;;8.30;99.90;;;;;;5043231;28;20694;-61
2023/11/16 12:03:37;;;;;;;21.10;9.37;;;8.30;99.90;;;;;;5049881;28;20274;-57
2023/11/16 12:06:08;;;;;;;21.47;9.93;;;8.30;99.90;;;;;;5041107;28;20687;-58
2023/11/16 12:08:40;;;;;;;24.67;10.53;;;8.30;99.90;;;;;;5047348;28;20251;-57
2023/11/16 12:11:11;;;;;;;18.13;9.00;;;8.30;99.90;;;;;;5044206;28;20225;-58
2023/11/16 12:13:40;;;;;;;19.20;9.27;;;8.30;99.90;;;;;;5038110;28;20195;-58
2023/11/16 12:16:12;;;;;;;23.97;9.47;;;8.40;99.90;;;;;;5040469;28;20212;-58
2023/11/16 12:18:45;;;;;;;20.67;9.17;;;8.40;99.90;;;;;;5047145;28;20243;-58
2023/11/16 12:21:15;;;;;;;24.67;9.30;;;8.30;99.90;;;;;;5047477;28;20224;-58
2023/11/16 12:23:48;;;;;;;21.97;8.87;;;8.40;99.90;;;;;;5044514;28;20237;-57
2023/11/16 12:26:18;;;;;;;18.17;8.40;;;8.40;99.90;;;;;;5045847;28;20224;-58
2023/11/16 12:28:46;;;;;;;17.43;8.70;;;8.50;99.90;;;;;;5040480;28;20200;-57
2023/11/16 12:31:18;;;;;;;16.90;8.57;;;8.50;99.90;;;;;;5046599;28;20191;-58
2023/11/16 12:33:48;;;;;;;23.10;8.40;;;8.50;99.90;;;;;;5045443;28;20682;-57
2023/11/16 12:36:19;;;;;;;16.87;8.67;;;8.50;99.90;;;;;;5046024;28;20571;-58
2023/11/16 12:38:49;;;;;;;16.00;8.33;;;8.50;99.90;;;;;;5044688;28;20242;-57
2023/11/16 12:41:18;;;;;;;18.20;8.17;;;8.50;99.90;;;;;;5049389;28;20718;-58
2023/11/16 12:43:49;;;;;;;15.27;7.53;;;8.60;99.90;;;;;;5047566;28;20196;-57
2023/11/16 12:46:19;;;;;;;18.47;8.27;;;8.50;99.90;;;;;;5040171;28;20528;-58
2023/11/16 12:48:47;;;;;;;13.17;7.33;;;8.50;99.90;;;;;;5048015;28;20311;-58
2023/11/16 12:51:19;;;;;;;16.20;8.03;;;8.50;99.90;;;;;;5043398;28;20587;-57
2023/11/16 12:53:48;;;;;;;14.53;8.00;;;8.60;99.90;;;;;;5042860;28;20328;-58
2023/11/16 12:56:18;;;;;;;16.17;8.07;;;8.60;99.90;;;;;;5042180;28;20252;-58
2023/11/16 12:58:47;;;;;;;15.00;7.77;;;8.60;99.90;;;;;;5042792;28;20242;-58
2023/11/16 13:01:15;;;;;;;12.33;7.77;;;8.60;99.90;;;;;;5048301;28;20248;-58